Time;durP1;ratioP1;P1;durP2;ratioP2;P2;SDS_P1;SDS_P2;PMS_P1;PMS_P2;Temp;Humidity;BMP_temperature;BMP_pressure;BME280_temperature;BME280_humidity;BME280_pressure;Samples;Min_cycle;Max_cycle;Signal;HPM_P1;HPM_P2
2021/07/24 00:00:32;;;;;;;19.07;17.37;;;;;;;16.19;100.00;97637.94;4984009;28;20205;-68
2021/07/24 00:03:01;;;;;;;18.60;17.00;;;;;;;16.13;100.00;97633.44;4985073;28;20205;-69
2021/07/24 00:05:29;;;;;;;18.63;17.03;;;;;;;16.09;100.00;97634.03;4983546;28;20678;-70
2021/07/24 00:07:57;;;;;;;19.30;17.60;;;;;;;16.13;100.00;97628.09;4986051;28;20205;-71
2021/07/24 00:10:25;;;;;;;17.73;16.13;;;;;;;16.09;100.00;97626.03;4984489;28;20703;-71
2021/07/24 00:12:53;;;;;;;20.00;18.07;;;;;;;16.05;100.00;97615.75;4985502;28;20230;-71
2021/07/24 00:15:21;;;;;;;17.90;16.27;;;;;;;16.14;100.00;97618.19;4986993;28;20256;-72
2021/07/24 00:17:49;;;;;;;18.53;16.93;;;;;;;16.10;100.00;97611.63;4984950;28;20701;-71
2021/07/24 00:20:18;;;;;;;18.13;16.63;;;;;;;16.01;100.00;97603.00;4985017;28;20261;-70
2021/07/24 00:22:46;;;;;;;19.93;18.13;;;;;;;16.11;100.00;97608.75;4986105;28;20197;-69
2021/07/24 00:25:14;;;;;;;20.00;18.30;;;;;;;16.12;100.00;97604.22;4985041;28;20609;-70
2021/07/24 00:27:42;;;;;;;19.40;17.70;;;;;;;16.02;100.00;97601.97;4985644;28;20236;-70
2021/07/24 00:30:11;;;;;;;18.47;16.97;;;;;;;16.01;100.00;97600.34;4985146;28;20216;-68
2021/07/24 00:32:39;;;;;;;19.30;17.60;;;;;;;16.00;100.00;97598.69;4983413;28;20205;-72
2021/07/24 00:35:08;;;;;;;19.23;17.57;;;;;;;15.98;100.00;97603.44;4984170;28;20234;-69
2021/07/24 00:37:37;;;;;;;20.20;18.27;;;;;;;15.87;100.00;97596.84;4984788;28;20226;-70
2021/07/24 00:40:06;;;;;;;19.20;17.40;;;;;;;15.77;100.00;97592.75;4984070;28;20209;-70
2021/07/24 00:42:35;;;;;;;21.97;19.83;;;;;;;15.74;100.00;97592.34;4985591;28;20319;-70
2021/07/24 00:45:05;;;;;;;22.13;19.93;;;;;;;15.69;100.00;97590.28;4983641;28;20221;-70
2021/07/24 00:47:35;;;;;;;21.03;19.03;;;;;;;15.53;100.00;97591.53;4985601;28;20582;-70
2021/07/24 00:50:03;;;;;;;20.97;19.17;;;;;;;15.46;100.00;97574.69;4984068;28;20225;-70
2021/07/24 00:52:31;;;;;;;22.60;20.53;;;;;;;15.46;100.00;97575.50;4983573;28;20209;-70
2021/07/24 00:55:01;;;;;;;21.10;19.00;;;;;;;15.43;100.00;97577.78;4981588;28;20221;-69
2021/07/24 00:57:29;;;;;;;20.37;18.57;;;;;;;15.41;100.00;97567.28;4983340;28;20228;-70
2021/07/24 00:59:56;;;;;;;20.00;18.30;;;;;;;15.37;100.00;97576.75;4984058;28;20212;-68
2021/07/24 01:02:24;;;;;;;20.30;18.50;;;;;;;15.32;100.00;97573.88;4985325;28;20236;-70
2021/07/24 01:04:52;;;;;;;20.57;18.83;;;;;;;15.30;100.00;97565.25;4980039;28;20240;-70
2021/07/24 01:07:20;;;;;;;20.47;18.60;;;;;;;15.23;100.00;97567.91;4984238;28;20202;-69
2021/07/24 01:09:49;;;;;;;20.37;18.47;;;;;;;15.26;100.00;97556.00;4982023;28;20209;-70
2021/07/24 01:12:19;;;;;;;21.40;19.50;;;;;;;15.18;100.00;97560.53;4982278;28;20686;-69
2021/07/24 01:14:47;;;;;;;20.33;18.53;;;;;;;15.15;100.00;97554.75;4982454;28;20232;-69
2021/07/24 01:17:15;;;;;;;20.50;18.80;;;;;;;15.15;100.00;97546.75;4983813;28;20229;-70
2021/07/24 01:19:43;;;;;;;20.33;18.33;;;;;;;15.10;100.00;97550.03;4980522;28;20337;-69
2021/07/24 01:22:13;;;;;;;20.30;18.50;;;;;;;15.15;100.00;97547.59;4983972;28;20633;-70
2021/07/24 01:24:41;;;;;;;20.10;18.30;;;;;;;15.13;100.00;97541.59;4983067;28;20237;-69
2021/07/24 01:27:09;;;;;;;18.83;17.33;;;;;;;15.13;100.00;97544.28;4983645;28;20206;-69
2021/07/24 01:29:37;;;;;;;20.80;19.07;;;;;;;15.19;100.00;97529.31;4982164;28;20697;-69
2021/07/24 01:32:06;;;;;;;19.10;17.37;;;;;;;15.15;100.00;97541.41;4987893;28;20208;-69
2021/07/24 01:34:34;;;;;;;20.77;18.97;;;;;;;15.15;100.00;97536.91;4981566;28;20230;-70
2021/07/24 01:37:02;;;;;;;20.40;18.60;;;;;;;15.03;100.00;97531.34;4980913;28;20720;-70
2021/07/24 01:39:32;;;;;;;21.23;18.43;;;;;;;15.02;100.00;97529.72;4982749;28;20589;-68
2021/07/24 01:41:59;;;;;;;21.37;19.37;;;;;;;15.00;100.00;97534.44;4983487;28;20633;-70
2021/07/24 01:44:27;;;;;;;20.73;18.30;;;;;;;14.94;100.00;97529.88;4981649;28;20243;-69
2021/07/24 01:46:55;;;;;;;20.90;19.00;;;;;;;14.84;100.00;97521.47;4987580;28;20229;-69
2021/07/24 01:55:04;;;;;;;20.53;18.70;;;;;;;14.70;100.00;97525.94;4981614;28;20457;-68
2021/07/24 01:57:35;;;;;;;19.43;17.57;;;;;;;14.65;100.00;97529.22;4982980;28;20243;-68
2021/07/24 02:00:09;;;;;;;21.17;19.27;;;;;;;14.69;100.00;97527.78;4983234;28;20236;-69
2021/07/24 02:02:38;;;;;;;21.67;19.60;;;;;;;14.62;100.00;97532.28;4982932;28;20205;-70
2021/07/24 02:05:12;;;;;;;20.70;18.77;;;;;;;14.55;100.00;97539.41;4982176;28;20265;-70
2021/07/24 02:07:42;;;;;;;22.13;19.87;;;;;;;14.48;100.00;97537.56;4981824;28;20683;-71
2021/07/24 02:10:12;;;;;;;21.63;19.77;;;;;;;14.47;100.00;97533.25;4983536;28;20205;-70
2021/07/24 02:12:40;;;;;;;21.43;19.40;;;;;;;14.50;100.00;97533.88;4981726;28;20209;-70
2021/07/24 02:15:09;;;;;;;22.13;19.80;;;;;;;14.31;100.00;97530.97;4981386;28;20218;-70
2021/07/24 02:17:38;;;;;;;19.43;17.73;;;;;;;14.35;100.00;97545.53;4981335;28;20212;-70
2021/07/24 02:20:08;;;;;;;21.83;19.73;;;;;;;14.27;100.00;97545.69;4986382;28;20210;-70
2021/07/24 02:22:35;;;;;;;21.30;19.23;;;;;;;14.22;100.00;97545.47;4979214;28;20742;-69
2021/07/24 02:25:04;;;;;;;21.07;19.17;;;;;;;14.19;100.00;97555.50;4982495;28;20226;-71
2021/07/24 02:27:34;;;;;;;20.60;18.60;;;;;;;14.17;100.00;97554.88;4981984;28;20330;-69
2021/07/24 02:30:03;;;;;;;21.47;19.47;;;;;;;14.18;100.00;97553.84;4981663;28;20217;-69
2021/07/24 02:32:31;;;;;;;21.50;19.53;;;;;;;14.17;100.00;97564.72;4981710;28;20238;-68
2021/07/24 02:34:58;;;;;;;20.57;18.77;;;;;;;14.12;100.00;97564.50;4980390;28;20224;-69
2021/07/24 02:37:26;;;;;;;21.80;19.57;;;;;;;14.19;100.00;97570.66;4981992;28;20228;-67
2021/07/24 02:39:54;;;;;;;21.17;19.30;;;;;;;14.15;100.00;97577.41;4980609;28;20385;-71
2021/07/24 02:42:22;;;;;;;22.43;20.47;;;;;;;14.15;100.00;97578.22;4978714;28;20224;-69
2021/07/24 02:44:52;;;;;;;20.73;19.03;;;;;;;14.12;100.00;97575.97;4980404;28;20276;-69
2021/07/24 02:47:20;;;;;;;22.37;20.13;;;;;;;14.12;100.00;97580.47;4980663;28;20216;-69
2021/07/24 02:49:48;;;;;;;20.70;18.93;;;;;;;14.22;100.00;97577.47;4982810;28;20304;-68
2021/07/24 02:52:16;;;;;;;21.30;19.47;;;;;;;14.24;100.00;97575.41;4979838;28;20202;-70
2021/07/24 02:54:44;;;;;;;21.10;19.20;;;;;;;14.18;100.00;97575.16;4982657;28;20785;-70
2021/07/24 02:57:12;;;;;;;21.83;20.03;;;;;;;14.09;100.00;97581.69;4979692;28;20248;-69
2021/07/24 02:59:40;;;;;;;21.80;19.83;;;;;;;14.02;100.00;97597.66;4982078;28;20221;-70
2021/07/24 03:02:10;;;;;;;21.90;19.70;;;;;;;14.00;100.00;97609.50;4980873;28;20209;-70
2021/07/24 03:04:38;;;;;;;21.10;19.17;;;;;;;13.92;100.00;97617.66;4979012;28;20234;-70
2021/07/24 03:07:06;;;;;;;22.73;20.67;;;;;;;13.96;100.00;97602.94;4980238;28;20330;-70
2021/07/24 03:09:34;;;;;;;19.93;18.03;;;;;;;13.94;100.00;97600.44;4981865;28;20228;-70
2021/07/24 03:12:02;;;;;;;19.77;18.13;;;;;;;13.98;100.00;97601.69;4981544;28;20654;-70
2021/07/24 03:14:30;;;;;;;21.20;19.10;;;;;;;14.00;100.00;97591.66;4982816;28;20244;-71
2021/07/24 03:16:58;;;;;;;21.83;19.83;;;;;;;13.95;100.00;97593.28;4981404;28;20202;-68
2021/07/24 03:19:27;;;;;;;20.47;18.67;;;;;;;13.89;100.00;97598.38;4979757;28;20232;-70
2021/07/24 03:21:55;;;;;;;20.37;18.33;;;;;;;13.84;100.00;97605.31;4984165;28;20217;-69
2021/07/24 03:24:23;;;;;;;20.17;18.37;;;;;;;13.85;100.00;97606.94;4980262;28;20232;-68
2021/07/24 03:26:51;;;;;;;18.97;17.40;;;;;;;13.86;100.00;97614.75;4980974;28;20209;-68
2021/07/24 03:29:19;;;;;;;21.07;19.07;;;;;;;13.88;100.00;97612.72;4979202;28;20208;-70
2021/07/24 03:31:47;;;;;;;20.40;18.67;;;;;;;13.88;100.00;97609.22;4980421;28;20209;-70
2021/07/24 03:34:15;;;;;;;19.63;17.83;;;;;;;13.91;100.00;97611.50;4982179;28;20229;-70
2021/07/24 03:36:44;;;;;;;19.57;17.87;;;;;;;13.82;100.00;97612.66;4981631;28;20205;-71
2021/07/24 03:39:12;;;;;;;20.50;18.60;;;;;;;13.75;100.00;97605.47;4979704;28;20418;-69
2021/07/24 03:41:40;;;;;;;20.57;18.77;;;;;;;13.77;100.00;97605.25;4985626;28;20587;-70
2021/07/24 03:44:08;;;;;;;20.13;18.37;;;;;;;13.72;100.00;97607.66;4980640;28;20225;-70
2021/07/24 03:46:36;;;;;;;19.90;18.10;;;;;;;13.74;100.00;97609.13;4980521;28;21140;-71
2021/07/24 03:49:04;;;;;;;20.37;18.60;;;;;;;13.76;100.00;97598.28;4982501;28;20580;-70
2021/07/24 03:51:32;;;;;;;20.83;18.93;;;;;;;13.77;100.00;97588.47;4979760;28;20222;-69
2021/07/24 03:54:01;;;;;;;21.50;19.40;;;;;;;13.67;100.00;97594.13;4981281;28;20244;-70
2021/07/24 03:56:29;;;;;;;21.10;19.20;;;;;;;13.67;100.00;97589.63;4983562;28;20213;-72
2021/07/24 03:58:57;;;;;;;21.77;19.77;;;;;;;13.78;100.00;97588.25;4982517;28;20645;-69
2021/07/24 04:01:27;;;;;;;21.57;19.37;;;;;;;13.89;100.00;97594.88;4984430;28;20198;-71
2021/07/24 04:03:55;;;;;;;21.13;19.23;;;;;;;13.98;100.00;97588.38;4982223;28;20234;-71
2021/07/24 04:06:24;;;;;;;19.97;18.17;;;;;;;14.01;100.00;97587.97;4981777;28;20257;-71
2021/07/24 04:08:54;;;;;;;20.23;18.50;;;;;;;14.03;100.00;97583.31;4981357;28;20598;-70
2021/07/24 04:11:23;;;;;;;21.83;19.73;;;;;;;13.96;100.00;97582.41;4984315;28;20213;-69
2021/07/24 04:13:52;;;;;;;20.90;19.03;;;;;;;13.94;100.00;97573.00;4978537;28;20234;-69
2021/07/24 04:16:20;;;;;;;19.57;17.97;;;;;;;13.98;100.00;97568.91;4977706;28;20214;-70
2021/07/24 04:18:48;;;;;;;21.37;19.37;;;;;;;13.99;100.00;97563.38;4980740;28;20675;-71
2021/07/24 04:21:16;;;;;;;20.13;18.40;;;;;;;14.04;100.00;97558.31;4981553;28;20696;-69
2021/07/24 04:23:45;;;;;;;21.33;18.60;;;;;;;14.13;100.00;97564.28;4979797;28;20752;-71
2021/07/24 04:26:13;;;;;;;20.27;18.47;;;;;;;14.19;100.00;97552.00;4981402;28;20379;-70
2021/07/24 04:28:42;;;;;;;23.47;18.67;;;;;;;14.32;100.00;97553.91;4982003;28;20748;-70
2021/07/24 04:31:13;;;;;;;20.33;18.63;;;;;;;14.50;100.00;97553.38;4981878;28;20209;-73
2021/07/24 04:33:41;;;;;;;20.40;18.50;;;;;;;14.57;100.00;97550.72;4981498;28;20209;-75
2021/07/24 04:36:11;;;;;;;18.97;17.23;;;;;;;14.59;100.00;97538.84;4980186;28;20212;-74
2021/07/24 04:38:40;;;;;;;19.03;17.43;;;;;;;14.75;100.00;97536.84;4964098;28;20202;-74
2021/07/24 04:41:07;;;;;;;22.83;17.33;;;;;;;14.78;100.00;97525.78;4969936;28;20233;-74
2021/07/24 04:43:35;;;;;;;19.03;17.33;;;;;;;14.93;100.00;97532.78;4975703;28;20469;-73
2021/07/24 04:46:06;;;;;;;19.10;17.33;;;;;;;15.00;100.00;97538.94;4981964;28;20209;-74
2021/07/24 04:48:34;;;;;;;18.63;16.80;;;;;;;15.02;100.00;97524.38;4986534;28;20213;-75
2021/07/24 04:51:02;;;;;;;18.77;17.10;;;;;;;14.90;100.00;97515.31;4982914;28;20296;-74
2021/07/24 04:53:31;;;;;;;18.17;16.50;;;;;;;14.98;100.00;97516.97;4990097;28;20202;-74
2021/07/24 04:55:59;;;;;;;18.90;17.17;;;;;;;14.94;100.00;97516.56;4984381;28;20210;-73
2021/07/24 04:58:27;;;;;;;19.73;18.03;;;;;;;14.95;100.00;97515.53;4983406;28;20213;-75
2021/07/24 05:00:54;;;;;;;20.17;18.23;;;;;;;14.89;100.00;97519.84;4988030;28;20229;-73
2021/07/24 05:03:24;;;;;;;20.20;18.50;;;;;;;14.93;100.00;97517.56;4981377;28;20205;-74
2021/07/24 05:05:53;;;;;;;19.90;18.20;;;;;;;14.94;100.00;97519.22;4985271;28;20217;-73
2021/07/24 05:08:22;;;;;;;19.67;18.03;;;;;;;15.15;100.00;97520.06;4984962;28;20212;-71
2021/07/24 05:10:50;;;;;;;20.03;18.33;;;;;;;15.16;100.00;97516.38;4987244;28;20201;-71
2021/07/24 05:13:18;;;;;;;20.60;18.53;;;;;;;15.26;100.00;97523.97;4980743;28;20447;-69
2021/07/24 05:15:46;;;;;;;20.00;18.07;;;;;;;15.31;100.00;97519.63;4985054;28;21293;-70
2021/07/24 05:18:14;;;;;;;21.27;19.30;;;;;;;15.43;100.00;97517.16;4987371;28;20209;-70
2021/07/24 05:20:43;;;;;;;19.37;17.67;;;;;;;15.62;100.00;97526.19;4983021;28;20261;-71
2021/07/24 05:23:11;;;;;;;19.47;17.63;;;;;;;15.91;100.00;97526.78;4983336;28;20674;-70
2021/07/24 05:25:39;;;;;;;18.70;16.97;;;;;;;16.01;100.00;97534.38;4984392;28;20222;-70
2021/07/24 05:28:07;;;;;;;18.43;16.60;;;;;;;16.09;100.00;97535.97;4981248;28;20209;-70
2021/07/24 05:30:35;;;;;;;19.17;17.57;;;;;;;16.19;100.00;97546.22;4982039;28;20681;-66
2021/07/24 05:33:03;;;;;;;18.93;17.00;;;;;;;16.39;100.00;97543.47;4983691;28;20213;-68
2021/07/24 05:35:31;;;;;;;18.77;17.17;;;;;;;16.53;98.59;97551.44;4981779;28;20717;-67
2021/07/24 05:38:00;;;;;;;17.57;16.00;;;;;;;16.72;97.69;97547.03;4985565;28;20685;-69
2021/07/24 05:40:28;;;;;;;17.83;16.30;;;;;;;16.90;95.61;97552.44;4979820;28;20226;-68
2021/07/24 05:42:59;;;;;;;16.83;15.23;;;;;;;17.04;94.56;97547.03;4982334;28;20221;-69
2021/07/24 05:45:27;;;;;;;17.53;15.67;;;;;;;17.19;93.07;97552.06;4984421;28;20375;-70
2021/07/24 05:47:55;;;;;;;15.87;14.47;;;;;;;17.27;87.71;97545.63;4984502;28;20411;-69
2021/07/24 05:50:24;;;;;;;15.67;14.27;;;;;;;17.44;86.73;97541.41;4984438;28;20205;-69
2021/07/24 05:52:51;;;;;;;15.10;13.83;;;;;;;17.55;87.17;97555.91;4985153;28;20667;-69
2021/07/24 05:55:21;;;;;;;16.07;14.53;;;;;;;17.69;87.23;97559.28;4981535;28;20281;-70
2021/07/24 05:57:49;;;;;;;16.27;14.83;;;;;;;17.87;85.52;97557.69;4984247;28;20472;-70
2021/07/24 06:00:18;;;;;;;16.47;15.00;;;;;;;18.07;83.08;97549.47;4981515;28;20563;-69
2021/07/24 06:02:45;;;;;;;13.87;12.77;;;;;;;18.29;83.10;97554.34;4984459;28;20228;-68
2021/07/24 06:05:13;;;;;;;14.93;13.53;;;;;;;18.56;82.53;97551.34;4981077;28;20724;-69
2021/07/24 06:07:41;;;;;;;14.77;13.57;;;;;;;18.53;79.36;97560.66;4982369;28;20575;-70
2021/07/24 06:10:10;;;;;;;13.77;12.50;;;;;;;18.80;78.08;97557.63;4983263;28;20206;-71
2021/07/24 06:12:40;;;;;;;15.90;13.60;;;;;;;18.92;78.01;97563.03;4981975;28;20260;-68
2021/07/24 06:15:08;;;;;;;15.00;13.67;;;;;;;19.07;75.62;97555.41;4982137;28;20262;-69
2021/07/24 06:17:42;;;;;;;15.40;14.03;;;;;;;19.18;74.51;97569.09;4982586;28;20201;-70
2021/07/24 06:20:11;;;;;;;13.30;12.30;;;;;;;19.23;74.05;97574.59;4981443;28;20721;-68
2021/07/24 06:22:39;;;;;;;13.40;12.23;;;;;;;19.34;72.63;97576.47;4986170;28;20205;-71
2021/07/24 06:25:08;;;;;;;13.80;12.47;;;;;;;19.77;71.30;97576.41;4982717;28;20236;-69
2021/07/24 06:27:36;;;;;;;14.57;13.20;;;;;;;19.79;70.63;97574.28;4981553;28;20477;-68
2021/07/24 06:30:06;;;;;;;13.27;12.17;;;;;;;19.84;70.32;97573.59;4974220;28;20207;-69
2021/07/24 06:32:34;;;;;;;13.33;12.20;;;;;;;19.80;70.77;97592.06;4981820;28;21112;-71
2021/07/24 06:35:02;;;;;;;13.17;11.87;;;;;;;19.69;70.34;97600.94;4981432;28;20217;-71
2021/07/24 06:37:30;;;;;;;12.90;11.87;;;;;;;19.73;70.69;97610.19;4981804;28;20220;-71
2021/07/24 06:39:58;;;;;;;12.90;11.77;;;;;;;19.73;71.07;97618.25;4979872;28;20201;-72
2021/07/24 06:42:26;;;;;;;12.63;11.57;;;;;;;19.78;71.93;97612.97;4982322;28;20220;-71
2021/07/24 06:44:54;;;;;;;14.13;12.77;;;;;;;19.80;71.42;97608.19;4986567;28;20228;-68
2021/07/24 06:47:23;;;;;;;13.57;12.17;;;;;;;19.90;70.84;97613.84;4983837;28;20213;-69
2021/07/24 06:49:51;;;;;;;13.57;12.17;;;;;;;19.92;71.31;97618.97;4984636;28;20209;-70
2021/07/24 06:52:19;;;;;;;14.00;12.63;;;;;;;19.98;70.01;97626.09;4980776;28;20198;-71
2021/07/24 06:54:48;;;;;;;12.57;11.57;;;;;;;20.19;71.13;97622.00;4981869;28;20234;-70
2021/07/24 06:57:16;;;;;;;12.40;11.40;;;;;;;20.23;70.52;97623.16;4983254;28;20210;-71
2021/07/24 06:59:44;;;;;;;12.43;11.43;;;;;;;20.40;70.07;97627.84;4982921;28;20205;-71
2021/07/24 07:02:12;;;;;;;13.30;11.93;;;;;;;20.52;69.67;97641.28;4987810;28;20602;-71
2021/07/24 07:04:42;;;;;;;12.07;11.07;;;;;;;20.60;68.01;97637.38;4981202;28;20240;-70
2021/07/24 07:07:10;;;;;;;12.57;11.47;;;;;;;20.51;69.91;97621.59;4979937;28;20224;-68
2021/07/24 07:09:38;;;;;;;12.00;10.90;;;;;;;20.61;69.30;97634.47;4983756;28;20209;-72
2021/07/24 07:12:06;;;;;;;12.00;10.90;;;;;;;20.57;69.97;97638.69;4986030;28;20221;-70
2021/07/24 07:14:34;;;;;;;12.23;11.23;;;;;;;20.66;69.67;97631.88;4983381;28;20237;-72
2021/07/24 07:17:02;;;;;;;11.90;10.70;;;;;;;20.79;68.38;97625.44;4980050;28;20205;-71
2021/07/24 07:19:31;;;;;;;12.47;11.00;;;;;;;20.88;68.87;97625.88;4979475;28;20197;-71
2021/07/24 07:22:00;;;;;;;12.30;11.30;;;;;;;21.13;67.47;97624.69;4983073;28;20298;-70
2021/07/24 07:24:32;;;;;;;12.33;11.33;;;;;;;21.45;65.63;97629.56;4980239;28;20591;-70
2021/07/24 07:27:01;;;;;;;12.77;11.80;;;;;;;21.58;63.73;97611.44;4979130;28;20289;-70
2021/07/24 07:29:29;;;;;;;12.53;11.30;;;;;;;21.44;64.37;97609.06;4984092;28;20237;-69
2021/07/24 07:31:56;;;;;;;11.70;10.80;;;;;;;21.47;66.04;97583.50;4984508;28;20197;-69
2021/07/24 07:34:25;;;;;;;14.90;12.17;;;;;;;21.56;65.26;97587.44;4980693;28;20357;-69
2021/07/24 07:36:52;;;;;;;12.57;11.37;;;;;;;21.64;64.97;97591.63;4985849;28;20208;-70
2021/07/24 07:39:22;;;;;;;12.20;11.27;;;;;;;21.89;64.33;97604.69;4980493;28;20670;-69
2021/07/24 07:41:50;;;;;;;12.57;11.53;;;;;;;22.19;62.92;97614.28;4984466;28;20224;-69
2021/07/24 07:44:17;;;;;;;12.47;11.47;;;;;;;22.19;63.80;97610.75;4983130;28;20233;-71
2021/07/24 07:46:45;;;;;;;12.07;11.07;;;;;;;22.48;62.36;97606.03;4982483;28;20209;-69
2021/07/24 07:49:13;;;;;;;13.03;11.83;;;;;;;22.63;61.98;97601.91;4982484;28;20237;-72
2021/07/24 07:51:41;;;;;;;14.97;10.77;;;;;;;22.88;61.57;97605.94;4983611;28;20205;-70
2021/07/24 07:54:09;;;;;;;12.57;11.17;;;;;;;23.01;59.64;97608.25;4981667;28;20225;-71
2021/07/24 07:56:39;;;;;;;13.53;11.17;;;;;;;23.15;60.54;97605.13;4985064;28;20208;-73
2021/07/24 07:59:07;;;;;;;11.57;10.57;;;;;;;23.02;58.93;97603.66;4982003;28;20565;-71
2021/07/24 08:01:35;;;;;;;11.17;10.33;;;;;;;22.94;59.92;97600.34;4981173;28;20365;-70
2021/07/24 08:04:03;;;;;;;11.73;10.83;;;;;;;22.92;60.07;97598.94;4985232;28;20719;-70
2021/07/24 08:06:31;;;;;;;11.37;10.47;;;;;;;23.25;58.67;97595.28;4977460;28;20578;-70
2021/07/24 08:08:59;;;;;;;10.80;9.80;;;;;;;23.61;57.26;97588.53;4980903;28;20213;-72
2021/07/24 08:11:27;;;;;;;11.03;10.13;;;;;;;23.88;55.90;97587.66;4985271;28;20205;-72
2021/07/24 08:13:56;;;;;;;12.63;10.27;;;;;;;23.96;55.94;97598.78;4980749;28;20229;-71
2021/07/24 08:16:24;;;;;;;10.33;9.13;;;;;;;24.30;55.77;97599.53;4980689;28;20220;-72
2021/07/24 08:18:52;;;;;;;10.37;9.57;;;;;;;24.47;52.84;97602.88;4980484;28;20265;-72
2021/07/24 08:21:20;;;;;;;11.43;9.77;;;;;;;24.50;51.10;97601.53;4984547;28;20603;-72
2021/07/24 08:23:48;;;;;;;9.97;9.07;;;;;;;24.60;50.72;97587.22;4990643;28;20480;-71
2021/07/24 08:26:16;;;;;;;10.33;9.53;;;;;;;24.66;50.89;97584.25;4975187;28;20208;-72
2021/07/24 08:28:44;;;;;;;9.73;8.93;;;;;;;24.95;50.29;97585.72;4976849;28;20215;-72
2021/07/24 08:31:16;;;;;;;9.83;9.10;;;;;;;24.98;51.37;97580.56;4984380;28;20447;-73
2021/07/24 08:33:44;;;;;;;10.90;9.90;;;;;;;25.20;49.67;97582.22;4981718;28;20672;-72
2021/07/24 08:36:12;;;;;;;9.57;8.77;;;;;;;25.32;49.14;97573.81;4981872;28;20815;-71
2021/07/24 08:38:40;;;;;;;10.07;8.30;;;;;;;25.23;49.01;97580.88;4987906;28;20221;-73
2021/07/24 08:41:08;;;;;;;9.17;8.47;;;;;;;25.46;48.43;97581.41;4984598;28;20300;-72
2021/07/24 08:43:35;;;;;;;10.17;9.27;;;;;;;25.47;46.89;97578.47;4983062;28;20220;-72
2021/07/24 08:46:03;;;;;;;14.83;8.73;;;;;;;25.19;49.91;97577.06;4980971;28;20954;-72
2021/07/24 08:48:33;;;;;;;10.10;8.57;;;;;;;25.19;49.77;97585.19;4981239;28;20211;-72
2021/07/24 08:51:01;;;;;;;9.70;8.80;;;;;;;25.50;46.87;97586.06;4984638;28;20208;-72
2021/07/24 08:53:31;;;;;;;11.80;9.00;;;;;;;25.82;48.28;97584.13;4983834;28;20675;-73
2021/07/24 08:56:02;;;;;;;9.13;8.43;;;;;;;25.86;46.38;97588.75;4978688;28;20461;-73
2021/07/24 08:58:32;;;;;;;9.80;9.03;;;;;;;26.17;46.90;97578.94;4981729;28;20693;-71
2021/07/24 09:01:00;;;;;;;9.00;8.20;;;;;;;26.47;44.99;97575.28;4981645;28;20263;-72
2021/07/24 09:03:34;;;;;;;9.90;8.47;;;;;;;26.50;46.74;97574.72;4976698;28;20795;-70
2021/07/24 09:06:03;;;;;;;9.27;8.57;;;;;;;26.32;45.61;97573.44;4981875;28;20205;-73
2021/07/24 09:08:31;;;;;;;9.23;8.53;;;;;;;26.49;45.93;97583.16;4982295;28;20209;-72
2021/07/24 09:10:59;;;;;;;10.13;8.10;;;;;;;26.63;45.17;97576.03;4981014;28;20444;-71
2021/07/24 09:13:27;;;;;;;10.07;8.57;;;;;;;26.86;45.04;97579.19;4986274;28;20201;-69
2021/07/24 09:15:55;;;;;;;9.23;8.63;;;;;;;26.96;43.54;97578.31;4989105;28;20256;-71
2021/07/24 09:18:24;;;;;;;9.87;9.07;;;;;;;27.06;43.51;97580.16;4981143;28;20205;-71
2021/07/24 09:20:53;;;;;;;9.20;8.40;;;;;;;26.89;45.05;97566.94;4982845;28;20700;-71
2021/07/24 09:23:25;;;;;;;10.77;8.50;;;;;;;26.82;42.64;97561.78;4982046;28;20240;-71
2021/07/24 09:25:54;;;;;;;8.10;7.50;;;;;;;26.81;43.86;97566.44;4981476;28;20220;-69
2021/07/24 09:28:24;;;;;;;9.47;8.70;;;;;;;27.08;41.70;97557.03;4980597;28;20216;-71
2021/07/24 09:30:52;;;;;;;8.83;8.17;;;;;;;27.27;42.42;97548.19;4986665;28;20288;-73
2021/07/24 09:33:21;;;;;;;8.43;7.73;;;;;;;27.18;42.28;97544.47;4988370;28;20212;-71
2021/07/24 09:36:03;;;;;;;8.77;7.90;;;;;;;27.44;41.61;97534.19;4985797;28;20201;-71
2021/07/24 09:38:33;;;;;;;9.03;8.43;;;;;;;27.42;41.01;97531.72;4991582;28;20208;-72
2021/07/24 09:41:03;;;;;;;8.87;8.23;;;;;;;27.65;38.41;97531.28;4988613;28;20209;-71
2021/07/24 09:43:33;;;;;;;8.50;7.70;;;;;;;27.74;37.72;97516.75;4990601;28;20225;-70
2021/07/24 09:46:11;;;;;;;7.87;7.17;;;;;;;27.96;37.29;97515.44;4974801;28;20439;-72
2021/07/24 09:48:42;;;;;;;7.87;7.27;;;;;;;28.13;36.76;97523.16;4975572;28;20211;-72
2021/07/24 09:51:13;;;;;;;8.40;7.60;;;;;;;28.07;37.95;97521.59;4984225;28;20205;-70
2021/07/24 09:53:42;;;;;;;8.53;7.83;;;;;;;28.17;36.64;97528.84;4984853;28;20582;-72
2021/07/24 09:56:14;;;;;;;8.20;7.60;;;;;;;28.10;36.55;97517.47;4982579;28;20239;-70
2021/07/24 09:58:43;;;;;;;7.77;7.23;;;;;;;28.15;37.39;97520.97;4987274;28;20634;-72
2021/07/24 10:01:12;;;;;;;8.70;8.00;;;;;;;28.29;36.01;97514.81;4987757;28;20201;-70
2021/07/24 10:03:41;;;;;;;9.07;8.17;;;;;;;28.42;36.11;97519.56;4985255;28;20846;-73
2021/07/24 10:06:14;;;;;;;7.87;7.27;;;;;;;28.36;35.57;97504.34;4985796;28;20905;-71
2021/07/24 10:08:43;;;;;;;7.90;7.40;;;;;;;28.29;36.99;97504.75;4985317;28;20705;-71
2021/07/24 10:11:12;;;;;;;8.00;7.20;;;;;;;28.47;37.39;97509.69;4984798;28;20210;-70
2021/07/24 10:13:40;;;;;;;8.63;7.93;;;;;;;28.59;36.95;97507.34;4982857;28;20206;-71
2021/07/24 10:16:09;;;;;;;12.73;11.73;;;;;;;28.36;36.69;97506.28;4984402;28;20264;-71
2021/07/24 10:18:38;;;;;;;9.10;8.30;;;;;;;28.70;35.59;97508.78;4983847;28;20201;-71
2021/07/24 10:21:06;;;;;;;8.60;7.97;;;;;;;28.96;37.04;97503.00;4981113;28;20220;-71
2021/07/24 10:23:35;;;;;;;7.60;7.10;;;;;;;28.97;35.39;97501.06;4987009;28;20229;-73
2021/07/24 10:26:10;;;;;;;8.50;7.77;;;;;;;29.05;35.36;97497.69;4986669;28;20655;-71
2021/07/24 10:28:46;;;;;;;8.53;7.77;;;;;;;29.32;35.69;97496.94;4981409;28;20202;-72
2021/07/24 10:31:16;;;;;;;8.60;7.90;;;;;;;29.35;35.14;97497.47;4983235;28;20201;-71
2021/07/24 10:33:44;;;;;;;9.37;8.57;;;;;;;28.70;35.84;97489.72;4984996;28;20262;-72
2021/07/24 10:36:14;;;;;;;8.77;8.07;;;;;;;28.43;36.34;97496.66;4985593;28;20210;-73
2021/07/24 10:39:01;;;;;;;9.00;8.10;;;;;;;28.41;37.23;97490.69;4984241;28;20198;-72
2021/07/24 10:41:36;;;;;;;9.77;8.97;;;;;;;27.80;38.81;97481.31;4988084;28;20205;-72
2021/07/24 10:44:06;;;;;;;10.63;9.73;;;;;;;27.74;36.77;97475.94;4985881;28;21214;-71
2021/07/24 10:47:19;;;;;;;11.37;10.17;;;;;;;27.22;39.97;97472.09;4984338;28;20217;-74
2021/07/24 10:50:00;;;;;;;8.70;8.10;;;;;;;26.95;39.47;97471.50;4989566;28;20462;-72
2021/07/24 10:53:12;;;;;;;10.37;9.57;;;;;;;27.18;40.59;97469.13;4982733;28;20202;-71
2021/07/24 10:55:51;;;;;;;9.53;8.73;;;;;;;27.13;40.09;97456.41;4984582;28;20260;-70
2021/07/24 10:58:26;;;;;;;10.77;9.87;;;;;;;26.95;39.97;97451.66;4981180;28;20642;-73
2021/07/24 11:00:57;;;;;;;8.80;8.10;;;;;;;27.13;38.76;97461.00;4981901;28;20365;-72
2021/07/24 11:03:50;;;;;;;9.13;8.40;;;;;;;27.32;38.45;97447.50;4985725;28;20320;-71
2021/07/24 11:06:23;;;;;;;8.47;7.77;;;;;;;27.47;38.31;97445.75;4971649;28;20300;-72
2021/07/24 11:09:30;;;;;;;8.70;8.00;;;;;;;27.41;39.17;97440.34;4979819;28;20385;-72
2021/07/24 11:12:09;;;;;;;9.77;8.90;;;;;;;27.41;38.53;97444.97;4977461;28;20247;-72
2021/07/24 11:14:55;;;;;;;8.83;8.13;;;;;;;27.44;40.64;97441.69;4984819;28;20893;-72
2021/07/24 11:17:23;;;;;;;7.87;7.27;;;;;;;27.72;38.49;97450.91;4988872;28;20646;-71
2021/07/24 11:20:25;;;;;;;8.93;8.23;;;;;;;27.61;38.64;97449.41;4982880;28;20214;-73
2021/07/24 11:23:01;;;;;;;9.40;8.67;;;;;;;27.60;39.06;97439.63;4984088;28;20231;-71
2021/07/24 11:25:36;;;;;;;8.73;8.03;;;;;;;27.23;40.16;97439.16;4985942;28;20764;-73
2021/07/24 11:28:06;;;;;;;10.07;8.53;;;;;;;27.29;40.75;97439.91;4983573;28;20602;-71
2021/07/24 11:30:35;;;;;;;8.60;7.97;;;;;;;27.74;38.91;97446.00;4984657;28;20226;-74
2021/07/24 11:33:03;;;;;;;8.87;8.07;;;;;;;28.12;37.85;97456.16;4982013;28;20201;-71